createdAt,value
2023-02-23T00:02:27.550Z,21.25
2023-02-23T00:09:35.268Z,23.50
2023-02-23T00:16:37.437Z,22.33
2023-02-23T00:23:39.227Z,25.05
2023-02-23T00:30:40.813Z,22.67
2023-02-23T00:37:47.941Z,21.05
2023-02-23T00:44:49.902Z,20.92
2023-02-23T00:51:52.234Z,18.67
2023-02-23T00:58:54.258Z,21.92
2023-02-23T01:06:05.234Z,23.95
2023-02-23T01:13:06.782Z,24.17
2023-02-23T01:20:18.109Z,27.92
2023-02-23T01:27:20.033Z,29.13
2023-02-23T01:34:21.678Z,35.67
2023-02-23T01:41:24.108Z,27.02
2023-02-23T01:48:27.950Z,38.72
2023-02-23T01:55:29.879Z,37.78
2023-02-23T02:02:34.344Z,41.95
2023-02-23T02:09:38.366Z,37.90
2023-02-23T02:17:02.450Z,40.92
2023-02-23T02:24:26.378Z,45.10
2023-02-23T02:32:02.056Z,47.70
2023-02-23T02:39:23.852Z,48.47
2023-02-23T02:46:28.667Z,50.28
2023-02-23T02:53:47.798Z,50.80
2023-02-23T03:01:08.029Z,52.50
2023-02-23T03:08:41.601Z,58.10
2023-02-23T03:16:33.123Z,60.97
2023-02-23T03:24:13.183Z,45.58
2023-02-23T03:31:42.089Z,16.70
2023-02-23T03:39:13.350Z,18.20
2023-02-23T03:46:34.135Z,15.15
2023-02-23T03:54:13.511Z,14.38
2023-02-23T04:01:33.575Z,19.77
2023-02-23T04:08:55.210Z,11.63
2023-02-23T04:16:08.372Z,11.27
2023-02-23T04:23:09.968Z,11.13
2023-02-23T04:30:12.002Z,14.40
2023-02-23T04:37:13.666Z,17.33
2023-02-23T04:44:15.214Z,21.33
2023-02-23T04:51:17.076Z,15.57
2023-02-23T04:58:18.763Z,14.23
2023-02-23T05:05:21.367Z,16.20
2023-02-23T05:12:22.869Z,15.65
2023-02-23T05:19:24.724Z,24.05
2023-02-23T05:26:26.285Z,29.50
2023-02-23T05:33:27.820Z,27.73
2023-02-23T05:40:29.326Z,29.50
2023-02-23T05:47:31.444Z,44.28
2023-02-23T05:54:33.045Z,43.63
2023-02-23T06:01:34.784Z,44.97
2023-02-23T06:08:36.362Z,43.08
2023-02-23T06:15:38.357Z,49.90
2023-02-23T06:22:39.944Z,49.72
2023-02-23T06:29:41.612Z,48.88
2023-02-23T06:36:43.251Z,49.90
2023-02-23T06:43:55.617Z,48.63
2023-02-23T06:51:00.327Z,49.47
2023-02-23T06:58:01.918Z,46.38
2023-02-23T07:05:04.680Z,46.67
2023-02-23T07:12:06.409Z,46.17
2023-02-23T07:19:08.056Z,46.58
2023-02-23T07:26:09.740Z,45.72
2023-02-23T07:33:11.276Z,46.78
2023-02-23T07:40:13.157Z,48.03
2023-02-23T07:47:14.757Z,45.00
2023-02-23T07:54:16.736Z,44.88
2023-02-23T08:01:18.693Z,46.60
2023-02-23T08:08:20.533Z,47.17
2023-02-23T08:15:22.130Z,46.05
2023-02-23T08:22:23.738Z,48.05
2023-02-23T08:29:25.273Z,53.53
2023-02-23T08:36:27.957Z,58.42
2023-02-23T08:43:29.744Z,63.15
2023-02-23T08:50:31.271Z,65.25
2023-02-23T08:57:34.110Z,64.45
2023-02-23T09:04:35.753Z,68.85
2023-02-23T09:11:37.377Z,56.17
2023-02-23T09:18:39.116Z,60.53
2023-02-23T09:25:43.822Z,54.05
2023-02-23T09:32:45.652Z,55.83
2023-02-23T09:39:48.731Z,48.45
2023-02-23T09:47:22.691Z,45.60
2023-02-23T09:54:25.591Z,46.50
2023-02-23T10:01:36.334Z,50.17
2023-02-23T10:08:59.176Z,58.15
2023-02-23T10:16:06.694Z,88.07
2023-02-23T10:23:15.329Z,53.97
2023-02-23T10:30:29.100Z,10.30
2023-02-23T10:37:30.837Z,9.13
2023-02-23T10:44:32.505Z,11.00
2023-02-23T10:51:36.831Z,10.57
2023-02-23T10:58:48.873Z,10.82
2023-02-23T11:05:52.704Z,17.17
2023-02-23T11:12:54.211Z,60.75
2023-02-23T11:20:01.684Z,18.45
2023-02-23T11:27:07.743Z,19.40
2023-02-23T11:34:11.229Z,54.20
2023-02-23T11:41:23.503Z,38.45
2023-02-23T11:48:56.836Z,17.58
2023-02-23T11:55:59.360Z,12.52
2023-02-23T12:03:01.361Z,12.88
2023-02-23T12:10:19.102Z,13.85
2023-02-23T12:17:33.712Z,16.42
2023-02-23T12:24:45.450Z,12.63
2023-02-23T12:31:50.080Z,17.02
2023-02-23T12:38:57.890Z,19.45
2023-02-23T12:46:02.346Z,15.48
2023-02-23T12:53:42.986Z,13.05
2023-02-23T13:00:53.059Z,17.30
2023-02-23T13:15:24.614Z,12.95
2023-02-23T13:22:52.871Z,13.48
2023-02-23T13:29:54.965Z,15.95
2023-02-23T13:36:57.182Z,12.60
2023-02-23T13:44:03.020Z,40.95
2023-02-23T13:51:30.443Z,26.42
2023-02-23T13:58:32.046Z,39.00
2023-02-23T14:05:42.195Z,29.20
2023-02-23T14:13:17.910Z,29.33
2023-02-23T14:20:38.237Z,28.77
2023-02-23T14:34:58.478Z,49.20
2023-02-23T14:42:00.064Z,53.38
2023-02-23T14:49:02.583Z,50.45
2023-02-23T14:56:04.653Z,56.65
2023-02-23T15:03:12.454Z,55.80
2023-02-23T15:10:32.895Z,61.20
2023-02-23T15:24:44.099Z,70.47
2023-02-23T15:31:52.218Z,66.40
2023-02-23T15:38:55.167Z,57.53
2023-02-23T15:45:59.354Z,49.72
2023-02-23T15:53:03.330Z,55.03
2023-02-23T16:00:10.610Z,49.35
2023-02-23T16:07:20.122Z,40.25
2023-02-23T16:14:22.642Z,48.92
2023-02-23T16:21:24.383Z,50.60
2023-02-23T16:28:30.760Z,47.58
2023-02-23T16:35:49.878Z,38.45
2023-02-23T16:42:53.311Z,60.30
2023-02-23T16:49:55.511Z,56.92
2023-02-23T16:56:57.155Z,50.00
2023-02-23T17:03:59.083Z,48.88
2023-02-23T17:11:00.662Z,52.17
2023-02-23T17:18:02.229Z,54.67
2023-02-23T17:25:04.710Z,54.50
2023-02-23T17:32:06.480Z,63.03
2023-02-23T17:39:09.863Z,51.80
2023-02-23T17:46:11.750Z,87.97
2023-02-23T17:53:13.425Z,73.38
2023-02-23T18:00:16.238Z,117.07
2023-02-23T18:07:18.410Z,22.73
2023-02-23T18:14:19.959Z,22.88
2023-02-23T18:21:22.088Z,24.35
2023-02-23T18:28:23.702Z,63.53
2023-02-23T18:35:25.363Z,87.65
2023-02-23T18:42:27.077Z,25.23
2023-02-23T18:49:28.628Z,24.75
2023-02-23T18:56:30.415Z,24.70
2023-02-23T19:03:31.943Z,23.55
2023-02-23T19:10:33.994Z,21.00
2023-02-23T19:17:35.749Z,20.85
2023-02-23T19:24:38.164Z,21.73
2023-02-23T19:31:39.892Z,20.52
2023-02-23T19:38:44.251Z,19.50
2023-02-23T19:45:46.663Z,25.52
2023-02-23T19:52:48.427Z,61.85
2023-02-23T19:59:50.139Z,17.02
2023-02-23T20:06:52.335Z,15.13
2023-02-23T20:13:54.333Z,14.27
2023-02-23T20:20:55.841Z,14.45
2023-02-23T20:27:59.303Z,23.08
2023-02-23T20:35:00.908Z,40.30
2023-02-23T20:42:02.440Z,45.28
2023-02-23T20:49:04.093Z,46.08
2023-02-23T20:56:06.787Z,43.53
2023-02-23T21:03:08.375Z,37.30
2023-02-23T21:10:10.509Z,50.58
2023-02-23T21:17:12.114Z,55.53
2023-02-23T21:24:14.954Z,23.10
2023-02-23T21:31:16.549Z,32.08
2023-02-23T21:38:18.132Z,47.28
2023-02-23T21:45:19.756Z,41.53
2023-02-23T21:52:21.403Z,44.08
2023-02-23T21:59:22.968Z,51.25
2023-02-23T22:06:26.415Z,54.63
2023-02-23T22:13:27.934Z,55.95
2023-02-23T22:20:29.447Z,52.40
2023-02-23T22:27:31.277Z,54.67
2023-02-23T22:34:32.832Z,62.65
2023-02-23T22:41:42.075Z,65.82
2023-02-23T22:48:46.998Z,64.70
2023-02-23T22:55:53.981Z,62.28
2023-02-23T23:02:55.538Z,59.17
2023-02-23T23:09:58.514Z,54.53
2023-02-23T23:17:00.151Z,58.35
2023-02-23T23:24:05.451Z,63.20
2023-02-23T23:31:10.352Z,64.10
2023-02-23T23:38:14.339Z,61.38
2023-02-23T23:45:17.574Z,58.15
2023-02-23T23:52:20.661Z,68.20
2023-02-23T23:59:23.029Z,68.55
